Time;durP1;ratioP1;P1;durP2;ratioP2;P2;SDS_P1;SDS_P2;PMS_P1;PMS_P2;Temp;Humidity;BMP_temperature;BMP_pressure;BME280_temperature;BME280_humidity;BME280_pressure;Samples;Min_cycle;Max_cycle;Signal;HPM_P1;HPM_P2
2022/02/27 00:00:37;;;;;;;4.37;2.27;;;;;;;-2.00;100.00;100500.34;5153126;27;20081;-79
2022/02/27 00:03:05;;;;;;;8.80;2.93;;;;;;;-2.07;100.00;100471.41;5146263;27;20043;-79
2022/02/27 00:05:32;;;;;;;11.53;2.60;;;;;;;-2.19;100.00;100471.03;5146049;27;20128;-80
2022/02/27 00:07:58;;;;;;;12.73;3.03;;;;;;;-2.23;100.00;100485.47;5141651;27;20053;-79
2022/02/27 00:10:25;;;;;;;16.37;2.90;;;;;;;-2.21;100.00;100485.38;5150669;27;20035;-79
2022/02/27 00:12:52;;;;;;;14.07;2.73;;;;;;;-2.32;100.00;100464.53;5155977;27;20053;-79
2022/02/27 00:15:18;;;;;;;6.67;2.67;;;;;;;-2.19;100.00;100488.84;5148662;27;20379;-79
2022/02/27 00:17:45;;;;;;;8.23;2.60;;;;;;;-2.07;100.00;100484.72;5148433;27;20192;-79
2022/02/27 00:20:13;;;;;;;7.70;2.57;;;;;;;-2.19;100.00;100454.19;5143743;27;20050;-79
2022/02/27 00:22:40;;;;;;;4.83;2.53;;;;;;;-2.04;100.00;100481.91;5141575;27;20470;-79
2022/02/27 00:25:09;;;;;;;6.83;2.40;;;;;;;-2.13;100.00;100484.06;5148959;27;20061;-79
2022/02/27 00:27:36;;;;;;;6.57;2.67;;;;;;;-2.07;100.00;100484.72;5149467;27;20425;-79
2022/02/27 00:30:04;;;;;;;7.03;2.73;;;;;;;-2.21;100.00;100466.72;5148151;27;20341;-80
2022/02/27 00:32:30;;;;;;;9.27;2.93;;;;;;;-2.10;100.00;100485.72;5148271;27;20417;-79
2022/02/27 00:34:57;;;;;;;10.70;2.87;;;;;;;-2.23;100.00;100474.78;5151864;27;20051;-80
2022/02/27 00:37:24;;;;;;;4.97;2.03;;;;;;;-2.13;100.00;100486.72;5145775;27;20042;-79
2022/02/27 00:39:51;;;;;;;4.93;2.70;;;;;;;-2.17;100.00;100486.94;5154528;27;20041;-80
2022/02/27 00:42:18;;;;;;;5.67;2.53;;;;;;;-2.32;100.00;100465.44;5149484;27;20039;-80
2022/02/27 00:44:44;;;;;;;6.70;2.60;;;;;;;-2.17;100.00;100484.28;5152152;27;20087;-79
2022/02/27 00:47:11;;;;;;;9.17;2.03;;;;;;;-2.32;100.00;100480.53;5149387;27;20050;-80
2022/02/27 00:49:37;;;;;;;6.10;2.30;;;;;;;-2.23;100.00;100488.13;5148927;27;20417;-80
2022/02/27 00:52:05;;;;;;;8.80;2.73;;;;;;;-2.33;100.00;100471.69;5151838;27;20073;-80
2022/02/27 00:54:33;;;;;;;6.67;2.23;;;;;;;-2.35;100.00;100493.97;5144847;27;20047;-80
2022/02/27 00:56:59;;;;;;;5.93;2.50;;;;;;;-2.50;100.00;100479.56;5142428;27;20542;-80
2022/02/27 00:59:26;;;;;;;4.93;2.27;;;;;;;-2.51;100.00;100480.53;5148548;27;20038;-80
2022/02/27 01:01:52;;;;;;;7.03;2.70;;;;;;;-2.47;100.00;100475.91;5146727;27;20054;-77
2022/02/27 01:04:19;;;;;;;2.73;2.20;;;;;;;-2.41;100.00;100491.59;5148339;27;20058;-78
2022/02/27 01:06:45;;;;;;;10.90;2.60;;;;;;;-2.49;100.00;100473.31;5149129;27;20053;-78
2022/02/27 01:09:12;;;;;;;6.70;2.83;;;;;;;-2.47;100.00;100478.56;5153234;27;20047;-79
2022/02/27 01:11:40;;;;;;;6.53;2.63;;;;;;;-2.50;100.00;100472.47;5148380;27;20054;-78
2022/02/27 01:14:06;;;;;;;11.17;3.47;;;;;;;-2.47;100.00;100491.88;5150367;27;20043;-79
2022/02/27 01:16:34;;;;;;;6.83;3.60;;;;;;;-2.49;100.00;100484.81;5138809;27;20045;-78
2022/02/27 01:19:01;;;;;;;7.60;3.50;;;;;;;-2.47;100.00;100478.56;5151725;27;20045;-79
2022/02/27 01:21:28;;;;;;;10.13;3.77;;;;;;;-2.55;100.00;100479.78;5152625;27;20481;-78
2022/02/27 01:23:54;;;;;;;9.30;3.70;;;;;;;-2.60;100.00;100471.13;5155495;27;20046;-79
2022/02/27 01:26:22;;;;;;;7.30;3.73;;;;;;;-2.60;100.00;100476.47;5151285;27;20043;-78
2022/02/27 01:28:50;;;;;;;7.93;3.20;;;;;;;-2.72;100.00;100453.91;5145801;27;20043;-79
2022/02/27 01:31:16;;;;;;;5.60;3.10;;;;;;;-2.70;100.00;100468.00;5148766;27;20049;-79
2022/02/27 01:33:43;;;;;;;9.57;3.30;;;;;;;-2.84;100.00;100438.50;5158129;27;20062;-79
2022/02/27 01:36:09;;;;;;;4.47;2.93;;;;;;;-2.72;100.00;100461.03;5151309;27;20077;-79
2022/02/27 01:38:36;;;;;;;5.87;2.77;;;;;;;-2.78;100.00;100448.00;5152247;27;20073;-78
2022/02/27 01:41:03;;;;;;;11.23;2.97;;;;;;;-2.88;100.00;100440.41;5152224;27;20485;-78
2022/02/27 01:43:29;;;;;;;4.80;3.37;;;;;;;-2.81;100.00;100446.34;5147532;27;20724;-78
2022/02/27 01:45:57;;;;;;;4.83;3.20;;;;;;;-2.92;100.00;100438.84;5149919;27;20129;-78
2022/02/27 01:48:25;;;;;;;8.63;3.47;;;;;;;-2.92;100.00;100454.81;5150600;27;20049;-79
2022/02/27 01:50:51;;;;;;;5.83;3.50;;;;;;;-2.92;100.00;100444.16;5152102;27;20484;-78
2022/02/27 01:53:18;;;;;;;7.43;3.73;;;;;;;-2.80;100.00;100457.84;5151357;27;20054;-78
2022/02/27 01:55:46;;;;;;;10.97;3.80;;;;;;;-2.93;100.00;100442.44;5152489;27;20402;-79
2022/02/27 01:58:12;;;;;;;10.07;4.23;;;;;;;-2.91;100.00;100443.22;5148802;27;20051;-78
2022/02/27 02:00:39;;;;;;;18.13;4.17;;;;;;;-2.99;100.00;100440.03;5149633;27;20061;-78
2022/02/27 02:03:07;;;;;;;12.70;4.07;;;;;;;-3.01;100.00;100431.28;5145843;27;20057;-78
2022/02/27 02:05:33;;;;;;;10.37;3.83;;;;;;;-2.95;100.00;100444.31;5153234;27;20038;-78
2022/02/27 02:08:00;;;;;;;5.27;2.77;;;;;;;-2.92;100.00;100449.50;5148406;27;20066;-78
2022/02/27 02:10:27;;;;;;;10.80;3.33;;;;;;;-2.91;100.00;100450.34;5152362;27;20055;-78
2022/02/27 02:12:54;;;;;;;11.87;3.43;;;;;;;-3.00;100.00;100432.13;5152150;27;20034;-78
2022/02/27 02:15:20;;;;;;;9.10;3.70;;;;;;;-2.99;100.00;100439.19;5147689;27;20039;-79
2022/02/27 02:17:47;;;;;;;12.87;3.73;;;;;;;-2.88;100.00;100445.72;5141541;27;20058;-78
2022/02/27 02:20:17;;;;;;;9.07;3.67;;;;;;;-2.87;100.00;100442.16;5150843;27;20051;-78
2022/02/27 02:22:43;;;;;;;12.10;3.85;;;;;;;-2.86;100.00;100449.22;5148715;27;20039;-79
2022/02/27 02:25:10;;;;;;;16.27;4.40;;;;;;;-2.90;100.00;100425.47;5144515;27;20126;-78
2022/02/27 02:27:38;;;;;;;7.47;3.33;;;;;;;-2.81;100.00;100430.38;5150430;27;20047;-78
2022/02/27 02:30:09;;;;;;;7.37;3.30;;;;;;;-2.87;100.00;100406.69;5152618;27;20053;-78
2022/02/27 02:32:46;;;;;;;13.70;4.03;;;;;;;-2.91;100.00;100419.25;5152681;27;20054;-78
2022/02/27 02:35:13;;;;;;;9.33;3.60;;;;;;;-2.95;100.00;100419.47;5153805;27;20050;-78
2022/02/27 02:37:40;;;;;;;10.03;3.37;;;;;;;-2.81;100.00;100421.53;5155226;27;20057;-78
2022/02/27 02:40:09;;;;;;;12.50;4.40;;;;;;;-2.52;100.00;100429.03;5143539;27;20069;-78
2022/02/27 02:42:39;;;;;;;6.63;3.57;;;;;;;-2.44;100.00;100427.81;5143857;27;20414;-78
2022/02/27 02:45:07;;;;;;;16.63;4.00;;;;;;;-2.46;100.00;100403.06;5151442;27;20042;-78
2022/02/27 02:47:33;;;;;;;11.73;4.20;;;;;;;-2.51;100.00;100408.63;5152219;27;20611;-78
2022/02/27 02:50:00;;;;;;;19.70;4.53;;;;;;;-2.44;100.00;100406.53;5151525;27;20046;-78
2022/02/27 02:52:26;;;;;;;17.73;4.10;;;;;;;-2.39;100.00;100424.03;5152994;27;20211;-79
2022/02/27 02:54:54;;;;;;;17.20;3.87;;;;;;;-2.39;100.00;100405.38;5150666;27;20043;-79
2022/02/27 02:57:21;;;;;;;7.70;3.10;;;;;;;-2.13;100.00;100417.44;5152769;27;20055;-78
2022/02/27 02:59:47;;;;;;;12.60;4.13;;;;;;;-1.95;100.00;100388.19;5150183;27;20053;-79
2022/02/27 03:02:14;;;;;;;11.53;4.20;;;;;;;-1.92;100.00;100392.53;5152305;27;20053;-78
2022/02/27 03:04:41;;;;;;;11.67;3.70;;;;;;;-1.79;100.00;100406.97;5152013;27;20050;-78
2022/02/27 03:07:07;;;;;;;10.27;4.20;;;;;;;-1.87;100.00;100396.66;5151303;27;20043;-79
2022/02/27 03:09:35;;;;;;;10.60;3.03;;;;;;;-1.67;100.00;100398.38;5152318;27;20053;-79
2022/02/27 03:12:03;;;;;;;13.87;3.40;;;;;;;-1.62;100.00;100409.66;5151012;27;20069;-78
2022/02/27 03:14:30;;;;;;;11.30;4.00;;;;;;;-1.69;100.00;100408.22;5149566;27;20051;-78
2022/02/27 03:16:56;;;;;;;15.27;4.03;;;;;;;-1.77;100.00;100397.09;5151388;27;20069;-79
2022/02/27 03:19:23;;;;;;;9.20;3.33;;;;;;;-1.80;100.00;100397.25;5152140;27;20054;-79
2022/02/27 03:21:50;;;;;;;12.40;4.07;;;;;;;-1.82;100.00;100405.31;5152337;27;20413;-78
2022/02/27 03:24:16;;;;;;;14.27;4.77;;;;;;;-1.88;100.00;100386.97;5151652;27;20047;-79
2022/02/27 03:26:45;;;;;;;8.43;3.90;;;;;;;-1.87;100.00;100396.66;5151820;27;20497;-78
2022/02/27 03:29:13;;;;;;;7.03;3.93;;;;;;;-1.81;100.00;100409.72;5151408;27;20046;-79
2022/02/27 03:31:39;;;;;;;17.03;4.23;;;;;;;-1.74;100.00;100404.09;5150210;27;20051;-79
2022/02/27 03:34:06;;;;;;;13.47;4.47;;;;;;;-1.59;100.00;100411.31;5148510;27;20141;-79
2022/02/27 03:36:33;;;;;;;10.13;4.30;;;;;;;-1.47;100.00;100405.34;5151479;27;20042;-79
2022/02/27 03:38:59;;;;;;;11.90;3.77;;;;;;;-1.41;100.00;100396.19;5151710;27;20056;-78
2022/02/27 03:41:26;;;;;;;7.30;4.23;;;;;;;-1.42;100.00;100397.13;5150213;27;20060;-79
2022/02/27 03:43:52;;;;;;;9.97;4.87;;;;;;;-1.47;100.00;100384.00;5150801;27;20049;-79
2022/02/27 03:46:20;;;;;;;13.80;4.47;;;;;;;-1.34;100.00;100402.94;5149227;27;20437;-79
2022/02/27 03:48:47;;;;;;;13.13;4.47;;;;;;;-1.55;100.00;100382.66;5150139;27;20039;-78
2022/02/27 03:51:13;;;;;;;11.20;4.13;;;;;;;-1.47;100.00;100394.69;5151092;27;20046;-79
2022/02/27 03:53:40;;;;;;;8.13;4.23;;;;;;;-1.41;100.00;100406.84;5151240;27;20077;-79
2022/02/27 03:56:06;;;;;;;9.63;4.27;;;;;;;-1.45;100.00;100399.94;5151432;27;20050;-79
2022/02/27 03:58:33;;;;;;;15.40;4.67;;;;;;;-1.49;100.00;100404.59;5150768;27;20046;-78
2022/02/27 04:01:00;;;;;;;9.70;4.20;;;;;;;-1.54;100.00;100395.94;5150281;27;20038;-78
2022/02/27 04:03:27;;;;;;;7.63;4.10;;;;;;;-1.63;100.00;100386.59;5148684;27;20484;-79
2022/02/27 04:05:54;;;;;;;12.13;4.90;;;;;;;-1.64;100.00;100402.66;5150186;27;20051;-79
2022/02/27 04:08:21;;;;;;;8.47;3.63;;;;;;;-1.70;100.00;100413.63;5151907;27;20056;-78
2022/02/27 04:10:47;;;;;;;10.63;4.60;;;;;;;-1.78;100.00;100408.69;5151188;27;20038;-79
2022/02/27 04:13:14;;;;;;;11.70;4.23;;;;;;;-1.82;100.00;100423.13;5149963;27;20482;-79
2022/02/27 04:15:40;;;;;;;10.00;4.23;;;;;;;-2.04;100.00;100410.81;5150806;27;20098;-79
2022/02/27 04:18:07;;;;;;;16.50;4.03;;;;;;;-1.93;100.00;100417.44;5151502;27;20047;-79
2022/02/27 04:20:35;;;;;;;12.10;4.23;;;;;;;-2.19;100.00;100409.75;5148303;27;20404;-79
2022/02/27 04:23:01;;;;;;;9.33;4.40;;;;;;;-2.13;100.00;100428.09;5149556;27;20485;-78
2022/02/27 04:25:28;;;;;;;16.87;4.97;;;;;;;-2.26;100.00;100405.66;5150093;27;20042;-79
2022/02/27 04:27:56;;;;;;;8.67;3.93;;;;;;;-2.27;100.00;100419.94;5150669;27;20047;-79
2022/02/27 04:30:23;;;;;;;10.53;4.30;;;;;;;-2.30;100.00;100425.41;5151569;27;20066;-79
2022/02/27 04:32:49;;;;;;;17.43;4.00;;;;;;;-2.35;100.00;100417.63;5151524;27;20121;-79
2022/02/27 04:35:16;;;;;;;16.63;5.10;;;;;;;-2.46;100.00;100417.25;5149666;27;20054;-79
2022/02/27 04:37:44;;;;;;;11.63;4.20;;;;;;;-2.49;100.00;100425.38;5145444;27;20046;-78
2022/02/27 04:40:12;;;;;;;12.77;4.23;;;;;;;-2.58;100.00;100409.84;5147000;27;20144;-79
2022/02/27 04:42:39;;;;;;;12.33;4.27;;;;;;;-2.50;100.00;100431.63;5150973;27;20038;-79
2022/02/27 04:45:07;;;;;;;14.80;4.10;;;;;;;-2.48;100.00;100429.78;5152576;27;20118;-79
2022/02/27 04:47:33;;;;;;;16.83;4.33;;;;;;;-2.56;100.00;100443.44;5154804;27;20095;-79
2022/02/27 04:50:00;;;;;;;11.30;4.83;;;;;;;-2.58;100.00;100433.78;5155033;27;20058;-79
2022/02/27 04:52:26;;;;;;;12.50;4.53;;;;;;;-2.52;100.00;100434.38;5155089;27;20051;-79
2022/02/27 04:54:54;;;;;;;9.67;4.47;;;;;;;-2.51;100.00;100443.25;5149286;27;20047;-79
2022/02/27 04:57:21;;;;;;;10.77;5.03;;;;;;;-2.56;100.00;100432.81;5151003;27;20050;-79
2022/02/27 04:59:47;;;;;;;8.10;4.23;;;;;;;-2.57;100.00;100416.91;5155008;27;20490;-79
2022/02/27 05:02:14;;;;;;;11.07;4.77;;;;;;;-2.58;100.00;100441.78;5154454;27;20148;-79
2022/02/27 05:04:40;;;;;;;10.97;4.57;;;;;;;-2.52;100.00;100439.69;5154743;27;20035;-79
2022/02/27 05:07:07;;;;;;;9.17;3.93;;;;;;;-2.64;100.00;100431.41;5153618;27;20057;-79
2022/02/27 05:09:34;;;;;;;9.60;4.50;;;;;;;-2.67;100.00;100419.94;5154564;27;20043;-79
2022/02/27 05:12:03;;;;;;;10.90;5.23;;;;;;;-2.67;100.00;100413.78;5148573;27;20133;-79
2022/02/27 05:14:30;;;;;;;11.93;4.60;;;;;;;-2.65;100.00;100419.88;5153847;27;20054;-79
2022/02/27 05:16:56;;;;;;;10.43;4.37;;;;;;;-2.62;100.00;100435.75;5154486;27;20070;-79
2022/02/27 05:19:23;;;;;;;10.67;4.43;;;;;;;-2.59;100.00;100432.06;5154386;27;20410;-79
2022/02/27 05:21:50;;;;;;;10.47;4.90;;;;;;;-2.53;100.00;100435.31;5154484;27;20550;-78
2022/02/27 05:24:16;;;;;;;16.60;4.93;;;;;;;-2.72;100.00;100426.44;5153413;27;20050;-79
2022/02/27 05:26:43;;;;;;;14.60;5.10;;;;;;;-2.76;100.00;100422.19;5149354;27;20042;-78
2022/02/27 05:29:11;;;;;;;14.30;4.47;;;;;;;-2.71;100.00;100436.13;5146252;27;20061;-79
2022/02/27 05:31:39;;;;;;;9.57;5.37;;;;;;;-2.75;100.00;100429.25;5153811;27;20047;-79
2022/02/27 05:34:06;;;;;;;10.67;4.10;;;;;;;-2.78;100.00;100445.34;5153205;27;20512;-79
2022/02/27 05:36:33;;;;;;;13.23;4.87;;;;;;;-2.78;100.00;100448.88;5154243;27;20135;-79
2022/02/27 05:38:59;;;;;;;10.43;4.67;;;;;;;-2.88;100.00;100434.25;5154044;27;20050;-79
2022/02/27 05:41:26;;;;;;;10.37;3.93;;;;;;;-2.94;100.00;100435.38;5151271;27;20550;-79
2022/02/27 05:43:52;;;;;;;14.93;5.03;;;;;;;-2.87;100.00;100462.59;5148120;27;20042;-78
2022/02/27 05:46:20;;;;;;;12.83;5.43;;;;;;;-2.90;100.00;100462.72;5153602;27;20390;-79
2022/02/27 05:48:47;;;;;;;14.23;5.27;;;;;;;-3.07;100.00;100436.81;5153896;27;20049;-79
2022/02/27 05:51:13;;;;;;;18.93;6.17;;;;;;;-2.93;100.00;100458.41;5154119;27;20049;-79
2022/02/27 05:53:40;;;;;;;11.17;5.13;;;;;;;-2.88;100.00;100456.38;5152249;27;20051;-79
2022/02/27 05:56:06;;;;;;;13.87;5.03;;;;;;;-2.85;100.00;100453.59;5152761;27;20482;-79
2022/02/27 05:58:34;;;;;;;12.83;4.67;;;;;;;-2.75;100.00;100471.84;5146473;27;20051;-77
2022/02/27 06:01:01;;;;;;;12.57;5.00;;;;;;;-2.77;100.00;100474.56;5154315;27;20339;-79
2022/02/27 06:03:29;;;;;;;10.93;4.93;;;;;;;-2.82;100.00;100460.56;5152660;27;20073;-79
2022/02/27 06:05:55;;;;;;;11.00;5.03;;;;;;;-2.65;100.00;100473.13;5147560;27;20501;-79
2022/02/27 06:08:22;;;;;;;18.03;5.17;;;;;;;-2.63;100.00;100473.09;5153369;27;20408;-77
2022/02/27 06:10:48;;;;;;;16.00;5.20;;;;;;;-2.78;100.00;100462.19;5153524;27;20074;-77
2022/02/27 06:13:15;;;;;;;7.50;4.73;;;;;;;-2.69;100.00;100453.78;5152602;27;20057;-77
2022/02/27 06:15:42;;;;;;;9.93;4.60;;;;;;;-2.53;100.00;100479.69;5145480;27;20138;-77
2022/02/27 06:18:08;;;;;;;20.67;5.37;;;;;;;-2.73;100.00;100451.31;5140136;27;20042;-77
2022/02/27 06:20:36;;;;;;;9.87;5.40;;;;;;;-2.68;100.00;100457.28;5153669;27;20545;-77
2022/02/27 06:23:03;;;;;;;14.27;5.70;;;;;;;-2.56;100.00;100462.09;5152381;27;20046;-77
2022/02/27 06:25:30;;;;;;;10.50;5.17;;;;;;;-2.45;100.00;100480.25;5151624;27;20524;-77
2022/02/27 06:27:56;;;;;;;10.73;4.90;;;;;;;-2.43;100.00;100462.38;5152766;27;20049;-79
2022/02/27 06:30:24;;;;;;;8.80;4.90;;;;;;;-2.36;100.00;100482.47;5152090;27;20053;-79
2022/02/27 06:32:52;;;;;;;19.90;6.13;;;;;;;-2.43;100.00;100472.19;5145793;27;20139;-79
2022/02/27 06:35:21;;;;;;;13.10;4.90;;;;;;;-2.40;100.00;100474.69;5151922;27;20502;-79
2022/02/27 06:37:50;;;;;;;19.42;6.35;;;;;;;-2.22;100.00;100473.00;5152625;27;20050;-79
2022/02/27 06:40:18;;;;;;;18.27;4.90;;;;;;;-2.11;100.00;100477.81;5152479;27;20046;-79
2022/02/27 06:42:45;;;;;;;15.37;6.07;;;;;;;-1.94;100.00;100467.22;5152421;27;20095;-79
2022/02/27 06:45:12;;;;;;;16.37;5.87;;;;;;;-1.91;100.00;100467.09;5152362;27;20053;-79
2022/02/27 06:47:39;;;;;;;10.97;5.00;;;;;;;-1.81;100.00;100475.47;5150827;27;20047;-79
2022/02/27 06:50:08;;;;;;;23.87;6.33;;;;;;;-1.70;100.00;100466.97;5151798;27;20042;-80
2022/02/27 06:52:34;;;;;;;11.50;5.57;;;;;;;-1.61;100.00;100463.88;5152709;27;20052;-79
2022/02/27 06:55:03;;;;;;;9.67;4.60;;;;;;;-1.51;100.00;100470.44;5151534;27;20046;-79
2022/02/27 06:57:29;;;;;;;17.33;5.20;;;;;;;-1.44;100.00;100471.88;5152701;27;20375;-79
2022/02/27 06:59:56;;;;;;;14.33;5.33;;;;;;;-1.29;100.00;100488.94;5152296;27;20081;-79
2022/02/27 07:02:22;;;;;;;16.27;5.63;;;;;;;-1.34;100.00;100487.44;5152650;27;20046;-79
2022/02/27 07:04:49;;;;;;;11.73;5.53;;;;;;;-1.33;100.00;100486.50;5147448;27;20069;-79
2022/02/27 07:07:15;;;;;;;15.57;5.93;;;;;;;-1.15;100.00;100501.56;5145731;27;20050;-79
2022/02/27 07:09:42;;;;;;;13.90;5.60;;;;;;;-1.21;100.00;100485.88;5152378;27;20046;-80
2022/02/27 07:12:10;;;;;;;14.30;6.63;;;;;;;-1.22;100.00;100484.13;5151945;27;20389;-80
2022/02/27 07:14:38;;;;;;;18.13;5.87;;;;;;;-1.09;100.00;100497.75;5151523;27;20078;-80
2022/02/27 07:17:05;;;;;;;15.47;5.97;;;;;;;-0.95;100.00;100499.69;5150885;27;20095;-79
2022/02/27 07:19:32;;;;;;;10.03;4.87;;;;;;;-0.94;100.00;100491.63;5152107;27;20047;-79
2022/02/27 07:21:58;;;;;;;15.07;5.63;;;;;;;-0.79;100.00;100516.66;5150682;27;20054;-79
2022/02/27 07:24:25;;;;;;;12.10;5.50;;;;;;;-0.86;100.00;100479.69;5151075;27;20058;-79
2022/02/27 07:26:51;;;;;;;7.57;4.73;;;;;;;-0.76;100.00;100486.28;5151584;27;20050;-79
2022/02/27 07:29:19;;;;;;;12.37;5.33;;;;;;;-0.63;100.00;100489.16;5151367;27;20474;-79
2022/02/27 07:31:46;;;;;;;14.40;5.03;;;;;;;-0.38;100.00;100500.28;5152361;27;20043;-79
2022/02/27 07:34:13;;;;;;;17.70;6.10;;;;;;;-0.31;100.00;100508.81;5150857;27;20065;-79
2022/02/27 07:36:40;;;;;;;13.17;4.93;;;;;;;-0.14;100.00;100510.56;5150233;27;20038;-79
2022/02/27 07:39:07;;;;;;;13.80;4.70;;;;;;;-0.03;100.00;100516.22;5147956;27;20049;-79
2022/02/27 07:41:34;;;;;;;11.30;5.33;;;;;;;0.06;100.00;100517.53;5150935;27;20422;-79
2022/02/27 07:44:00;;;;;;;15.47;5.83;;;;;;;0.22;100.00;100517.53;5150829;27;20038;-79
2022/02/27 07:46:28;;;;;;;7.83;4.67;;;;;;;0.14;100.00;100496.56;5149128;27;20038;-79
2022/02/27 07:48:55;;;;;;;16.07;4.97;;;;;;;0.21;100.00;100490.84;5151160;27;20050;-79
2022/02/27 07:51:21;;;;;;;12.20;5.60;;;;;;;0.40;100.00;100510.28;5141796;27;20061;-78
2022/02/27 07:53:48;;;;;;;10.93;4.87;;;;;;;0.39;100.00;100505.88;5147571;27;20402;-79
2022/02/27 07:56:14;;;;;;;11.53;4.50;;;;;;;0.57;100.00;100521.84;5149495;27;20053;-80
2022/02/27 07:58:41;;;;;;;16.73;4.85;;;;;;;0.73;100.00;100522.69;5151432;27;20134;-80
2022/02/27 08:01:07;;;;;;;36.70;13.70;;;;;;;0.74;100.00;100508.34;5151350;27;20054;-79
2022/02/27 08:03:35;;;;;;;13.80;5.13;;;;;;;0.88;100.00;100529.81;5150615;27;20043;-79
2022/02/27 08:06:02;;;;;;;9.27;4.20;;;;;;;0.94;100.00;100525.91;5150775;27;20540;-79
2022/02/27 08:08:28;;;;;;;15.50;5.20;;;;;;;0.89;100.00;100511.97;5149094;27;20043;-79
2022/02/27 08:10:55;;;;;;;14.35;5.18;;;;;;;1.04;100.00;100527.13;5144758;27;20231;-79
2022/02/27 08:13:21;;;;;;;9.80;5.22;;;;;;;1.17;100.00;100521.88;5150120;27;20051;-79
2022/02/27 08:15:48;;;;;;;11.15;5.25;;;;;;;1.31;100.00;100517.50;5151033;27;20039;-79
2022/02/27 08:18:16;;;;;;;12.20;4.43;;;;;;;1.32;100.00;100528.13;5151349;27;20051;-79
2022/02/27 08:20:44;;;;;;;12.00;5.75;;;;;;;1.41;100.00;100529.41;5155107;27;20043;-79
2022/02/27 08:23:12;;;;;;;9.35;3.58;;;;;;;1.37;100.00;100514.47;5154815;27;20051;-79
2022/02/27 08:25:38;;;;;;;11.23;5.15;;;;;;;1.49;100.00;100536.97;5151157;27;20047;-79
2022/02/27 08:28:05;;;;;;;11.88;5.05;;;;;;;1.46;100.00;100521.97;5155368;27;20043;-80
2022/02/27 08:30:31;;;;;;;11.20;5.03;;;;;;;1.71;100.00;100540.06;5154585;27;20045;-77
2022/02/27 08:32:58;;;;;;;7.18;4.13;;;;;;;1.76;99.96;100545.16;5155066;27;20046;-79
2022/02/27 08:35:24;;;;;;;15.55;5.35;;;;;;;1.67;98.62;100521.59;5154170;27;20043;-78
2022/02/27 08:37:52;;;;;;;10.25;5.03;;;;;;;1.75;98.77;100522.84;5155427;27;20125;-79
2022/02/27 08:40:19;;;;;;;11.70;4.70;;;;;;;1.91;98.81;100528.13;5152996;27;20050;-78
2022/02/27 08:42:46;;;;;;;11.45;4.65;;;;;;;2.01;98.13;100544.50;5154093;27;20054;-80
2022/02/27 08:45:12;;;;;;;12.27;5.45;;;;;;;2.02;97.09;100527.44;5150903;27;20383;-80
2022/02/27 08:47:39;;;;;;;8.05;4.93;;;;;;;2.12;96.83;100522.34;5154435;27;20038;-80
2022/02/27 08:50:06;;;;;;;14.25;5.05;;;;;;;2.35;96.29;100538.78;5154942;27;20054;-80
2022/02/27 08:52:33;;;;;;;11.00;4.90;;;;;;;2.39;95.23;100521.53;5154874;27;20099;-79
2022/02/27 08:55:00;;;;;;;11.50;4.03;;;;;;;2.41;93.54;100517.81;5153861;27;20038;-79
2022/02/27 08:57:30;;;;;;;9.73;4.18;;;;;;;2.56;91.71;100533.84;5146796;27;20043;-79
2022/02/27 08:59:56;;;;;;;11.73;5.25;;;;;;;2.57;90.33;100524.84;5140504;27;20069;-79
2022/02/27 09:02:23;;;;;;;6.88;3.25;;;;;;;2.64;93.13;100518.13;5155401;27;20047;-79
2022/02/27 09:04:51;;;;;;;9.30;4.07;;;;;;;2.75;91.17;100533.53;5152910;27;20046;-79
2022/02/27 09:07:17;;;;;;;14.23;3.80;;;;;;;2.82;90.15;100518.75;5154670;27;20043;-79
2022/02/27 09:09:44;;;;;;;8.38;4.07;;;;;;;2.91;89.52;100541.44;5155099;27;20449;-79
2022/02/27 09:12:12;;;;;;;7.00;3.83;;;;;;;2.94;89.05;100530.50;5154770;27;20504;-79
2022/02/27 09:14:41;;;;;;;11.73;5.03;;;;;;;2.88;87.30;100512.09;5154131;27;20486;-81
2022/02/27 09:17:08;;;;;;;4.53;3.05;;;;;;;2.98;88.69;100521.25;5154260;27;20050;-79
2022/02/27 09:19:34;;;;;;;14.02;5.82;;;;;;;3.04;85.74;100514.59;5154890;27;20857;-79
2022/02/27 09:22:01;;;;;;;8.02;3.60;;;;;;;3.07;85.29;100504.53;5153143;27;20049;-80
2022/02/27 09:24:27;;;;;;;7.88;3.60;;;;;;;3.22;84.32;100518.72;5154336;27;20039;-79
2022/02/27 09:26:54;;;;;;;5.68;3.80;;;;;;;3.35;83.46;100526.81;5154187;27;20066;-79
2022/02/27 09:29:22;;;;;;;5.88;3.72;;;;;;;3.26;82.65;100504.13;5151366;27;20056;-79
2022/02/27 09:31:49;;;;;;;6.60;3.70;;;;;;;3.40;83.27;100521.97;5147135;27;20131;-79
2022/02/27 09:34:15;;;;;;;6.88;3.50;;;;;;;3.43;82.64;100515.53;5146315;27;20043;-79
2022/02/27 09:36:42;;;;;;;7.13;3.60;;;;;;;3.60;82.60;100517.94;5149201;27;20130;-79
2022/02/27 09:39:09;;;;;;;5.85;3.70;;;;;;;3.56;79.91;100516.41;5149746;27;20043;-80
2022/02/27 09:41:36;;;;;;;7.90;3.60;;;;;;;3.61;82.56;100522.31;5145210;27;20035;-79
2022/02/27 09:44:04;;;;;;;6.03;3.35;;;;;;;3.68;82.25;100512.00;5153763;27;20050;-79
2022/02/27 09:46:33;;;;;;;8.10;3.55;;;;;;;3.77;78.97;100519.44;5153547;27;20050;-79
2022/02/27 09:48:59;;;;;;;9.38;3.38;;;;;;;3.66;78.05;100516.66;5154433;27;20474;-79
2022/02/27 09:51:26;;;;;;;8.95;3.17;;;;;;;3.75;76.13;100517.81;5152817;27;20045;-79
2022/02/27 09:53:53;;;;;;;8.02;2.78;;;;;;;3.75;75.93;100513.31;5145830;27;20039;-80
2022/02/27 09:56:20;;;;;;;6.68;3.03;;;;;;;3.84;76.96;100496.50;5141652;27;20053;-79
2022/02/27 09:58:47;;;;;;;7.07;2.90;;;;;;;4.16;78.49;100522.09;5148756;27;20043;-79
2022/02/27 10:01:15;;;;;;;6.68;3.20;;;;;;;4.17;76.53;100502.25;5153037;27;20047;-80
2022/02/27 10:03:43;;;;;;;9.15;3.85;;;;;;;4.22;72.77;100516.25;5153726;27;20050;-80
2022/02/27 10:06:12;;;;;;;8.88;3.17;;;;;;;4.18;73.97;100515.59;5153831;27;20061;-80
2022/02/27 10:08:41;;;;;;;9.95;2.75;;;;;;;4.27;70.48;100502.47;5153815;27;20043;-80
2022/02/27 10:11:10;;;;;;;7.82;2.95;;;;;;;4.45;70.91;100511.88;5142174;27;20043;-79
2022/02/27 10:13:39;;;;;;;5.40;3.28;;;;;;;4.42;65.89;100507.56;5149419;27;20379;-80
2022/02/27 10:16:08;;;;;;;4.85;2.40;;;;;;;4.44;68.05;100499.38;5144905;27;20046;-79
2022/02/27 10:18:39;;;;;;;9.98;3.65;;;;;;;4.65;70.72;100514.94;5153814;27;20047;-80
2022/02/27 10:21:18;;;;;;;4.57;3.00;;;;;;;4.71;70.29;100492.94;5153577;27;20061;-80
2022/02/27 10:23:45;;;;;;;7.97;3.53;;;;;;;4.73;71.27;100496.38;5153213;27;20042;-79
2022/02/27 10:26:21;;;;;;;5.72;2.28;;;;;;;4.73;63.93;100497.25;5153163;27;20167;-80
2022/02/27 10:29:03;;;;;;;7.55;3.30;;;;;;;4.74;64.17;100498.97;5149775;27;20038;-79
2022/02/27 10:31:30;;;;;;;8.68;3.08;;;;;;;4.61;63.89;100471.22;5146461;27;20047;-79
2022/02/27 10:33:57;;;;;;;9.15;2.35;;;;;;;4.69;63.35;100476.03;5152532;27;20477;-80
2022/02/27 10:36:26;;;;;;;4.95;2.25;;;;;;;4.87;62.83;100500.75;5142543;27;20053;-78
2022/02/27 10:38:53;;;;;;;6.43;2.33;;;;;;;4.91;63.38;100495.00;5150896;27;20046;-77
2022/02/27 10:41:21;;;;;;;6.70;2.45;;;;;;;4.95;62.38;100487.53;5152872;27;20175;-77
2022/02/27 10:43:49;;;;;;;2.60;1.92;;;;;;;4.99;62.45;100489.03;5151035;27;20047;-77
2022/02/27 10:46:19;;;;;;;4.18;2.17;;;;;;;4.99;60.87;100478.25;5152725;27;20055;-79
2022/02/27 10:48:50;;;;;;;5.15;2.22;;;;;;;5.14;58.73;100479.75;5151866;27;20046;-80
2022/02/27 10:51:17;;;;;;;3.83;2.17;;;;;;;4.98;60.48;100463.03;5151578;27;20394;-79
2022/02/27 10:53:47;;;;;;;3.65;1.83;;;;;;;5.04;62.25;100472.50;5148617;27;20078;-79
2022/02/27 10:56:15;;;;;;;3.05;1.73;;;;;;;5.29;58.98;100482.25;5144906;27;20090;-80
2022/02/27 10:58:43;;;;;;;4.20;1.50;;;;;;;5.31;58.35;100475.78;5150550;27;20327;-79
2022/02/27 11:01:17;;;;;;;3.45;1.77;;;;;;;5.42;60.45;100484.84;5152213;27;20046;-79
2022/02/27 11:03:44;;;;;;;3.67;2.10;;;;;;;5.42;60.15;100474.94;5151829;27;20057;-79
2022/02/27 11:06:12;;;;;;;3.17;1.67;;;;;;;5.38;56.47;100483.41;5151290;27;20130;-79
2022/02/27 11:08:38;;;;;;;6.05;3.05;;;;;;;5.40;56.08;100478.72;5144996;27;20042;-79
2022/02/27 11:11:08;;;;;;;12.52;4.28;;;;;;;5.42;57.23;100456.06;5152475;27;20117;-79
2022/02/27 11:13:35;;;;;;;5.72;2.50;;;;;;;5.70;59.45;100466.53;5152008;27;20058;-80
2022/02/27 11:16:02;;;;;;;11.13;2.10;;;;;;;5.78;58.09;100469.44;5152171;27;20054;-80